sensor_id;sensor_type;location;lat;lon;timestamp;pressure;altitude;pressure_sealevel;temperature;humidity
39411;BME280;26579;43.238;23.124;2022-07-04T00:02:21;97097.47;;;25.19;60.93
39411;BME280;26579;43.238;23.124;2022-07-04T00:04:47;97099.72;;;25.22;60.60
39411;BME280;26579;43.238;23.124;2022-07-04T00:07:13;97101.94;;;25.25;60.81
39411;BME280;26579;43.238;23.124;2022-07-04T00:09:38;97094.22;;;25.11;60.62
39411;BME280;26579;43.238;23.124;2022-07-04T00:12:04;97101.56;;;25.15;60.41
39411;BME280;26579;43.238;23.124;2022-07-04T00:14:30;97068.88;;;24.95;60.25
39411;BME280;26579;43.238;23.124;2022-07-04T00:16:56;97106.25;;;25.13;60.58
39411;BME280;26579;43.238;23.124;2022-07-04T00:19:22;97100.75;;;25.15;59.91
39411;BME280;26579;43.238;23.124;2022-07-04T00:21:48;97083.81;;;25.02;59.76
39411;BME280;26579;43.238;23.124;2022-07-04T00:24:13;97085.47;;;24.97;60.10
39411;BME280;26579;43.238;23.124;2022-07-04T00:26:39;97099.97;;;25.01;60.18
39411;BME280;26579;43.238;23.124;2022-07-04T00:29:05;97085.72;;;24.89;60.25
39411;BME280;26579;43.238;23.124;2022-07-04T00:31:30;97084.88;;;24.95;59.81
39411;BME280;26579;43.238;23.124;2022-07-04T00:33:56;97094.47;;;24.96;59.96
39411;BME280;26579;43.238;23.124;2022-07-04T00:36:22;97084.69;;;24.90;59.90
39411;BME280;26579;43.238;23.124;2022-07-04T00:38:48;97092.84;;;24.95;59.67
39411;BME280;26579;43.238;23.124;2022-07-04T00:41:13;97092.66;;;24.90;59.95
39411;BME280;26579;43.238;23.124;2022-07-04T00:43:39;97084.72;;;24.83;60.08
39411;BME280;26579;43.238;23.124;2022-07-04T00:46:05;97090.03;;;24.83;60.09
39411;BME280;26579;43.238;23.124;2022-07-04T00:48:32;97070.63;;;24.76;59.80
39411;BME280;26579;43.238;23.124;2022-07-04T00:50:58;97079.22;;;24.78;59.94
39411;BME280;26579;43.238;23.124;2022-07-04T00:53:23;97100.47;;;24.91;59.54
39411;BME280;26579;43.238;23.124;2022-07-04T00:55:50;97089.75;;;24.98;59.08
39411;BME280;26579;43.238;23.124;2022-07-04T00:58:19;97088.31;;;25.02;59.10
39411;BME280;26579;43.238;23.124;2022-07-04T01:00:45;97075.25;;;24.94;59.54
39411;BME280;26579;43.238;23.124;2022-07-04T01:03:11;97079.78;;;24.87;60.38
39411;BME280;26579;43.238;23.124;2022-07-04T01:05:38;97072.66;;;24.80;60.02
39411;BME280;26579;43.238;23.124;2022-07-04T01:08:04;97082.44;;;24.87;59.78
39411;BME280;26579;43.238;23.124;2022-07-04T01:10:30;97088.19;;;24.90;59.50
39411;BME280;26579;43.238;23.124;2022-07-04T01:12:56;97087.75;;;24.93;59.67
39411;BME280;26579;43.238;23.124;2022-07-04T01:15:22;97070.38;;;24.84;59.90
39411;BME280;26579;43.238;23.124;2022-07-04T01:17:48;97078.59;;;24.82;59.80
39411;BME280;26579;43.238;23.124;2022-07-04T01:20:15;97081.44;;;24.88;59.52
39411;BME280;26579;43.238;23.124;2022-07-04T01:22:41;97071.22;;;24.84;59.35
39411;BME280;26579;43.238;23.124;2022-07-04T01:25:08;97072.22;;;24.83;59.62
39411;BME280;26579;43.238;23.124;2022-07-04T01:27:35;97081.00;;;24.84;59.85
39411;BME280;26579;43.238;23.124;2022-07-04T01:30:00;97077.13;;;24.87;60.25
39411;BME280;26579;43.238;23.124;2022-07-04T01:32:26;97081.25;;;24.82;60.09
39411;BME280;26579;43.238;23.124;2022-07-04T01:34:52;97074.50;;;24.80;60.28
39411;BME280;26579;43.238;23.124;2022-07-04T01:37:18;97063.28;;;24.71;60.50
39411;BME280;26579;43.238;23.124;2022-07-04T01:39:44;97076.97;;;24.75;60.72
39411;BME280;26579;43.238;23.124;2022-07-04T01:42:09;97077.78;;;24.75;60.84
39411;BME280;26579;43.238;23.124;2022-07-04T01:44:35;97084.38;;;24.73;60.90
39411;BME280;26579;43.238;23.124;2022-07-04T01:47:02;97072.72;;;24.60;60.86
39411;BME280;26579;43.238;23.124;2022-07-04T01:49:27;97069.66;;;24.63;60.82
39411;BME280;26579;43.238;23.124;2022-07-04T01:51:53;97079.91;;;24.60;61.07
39411;BME280;26579;43.238;23.124;2022-07-04T01:54:19;97081.94;;;24.65;61.10
39411;BME280;26579;43.238;23.124;2022-07-04T01:56:45;97075.03;;;24.50;61.43
39411;BME280;26579;43.238;23.124;2022-07-04T01:59:11;97078.91;;;24.54;61.24
39411;BME280;26579;43.238;23.124;2022-07-04T02:01:37;97085.66;;;24.57;61.10
39411;BME280;26579;43.238;23.124;2022-07-04T02:04:04;97092.19;;;24.61;61.11
39411;BME280;26579;43.238;23.124;2022-07-04T02:06:31;97087.69;;;24.61;61.15
39411;BME280;26579;43.238;23.124;2022-07-04T02:08:58;97087.13;;;24.53;61.32
39411;BME280;26579;43.238;23.124;2022-07-04T02:11:24;97077.09;;;24.48;61.69
39411;BME280;26579;43.238;23.124;2022-07-04T02:13:49;97093.63;;;24.57;61.39
39411;BME280;26579;43.238;23.124;2022-07-04T02:16:15;97086.06;;;24.54;61.77
39411;BME280;26579;43.238;23.124;2022-07-04T02:18:41;97085.66;;;24.57;61.60
39411;BME280;26579;43.238;23.124;2022-07-04T02:21:06;97095.69;;;24.61;61.63
39411;BME280;26579;43.238;23.124;2022-07-04T02:23:32;97087.50;;;24.56;61.76
39411;BME280;26579;43.238;23.124;2022-07-04T02:25:58;97102.19;;;24.66;61.68
39411;BME280;26579;43.238;23.124;2022-07-04T02:28:23;97085.00;;;24.68;61.04
39411;BME280;26579;43.238;23.124;2022-07-04T02:30:50;97090.75;;;24.65;61.20
39411;BME280;26579;43.238;23.124;2022-07-04T02:33:15;97106.25;;;24.81;61.29
39411;BME280;26579;43.238;23.124;2022-07-04T02:35:41;97103.00;;;24.73;61.55
39411;BME280;26579;43.238;23.124;2022-07-04T02:38:07;97104.00;;;24.78;61.38
39411;BME280;26579;43.238;23.124;2022-07-04T02:40:33;97104.22;;;24.77;61.34
39411;BME280;26579;43.238;23.124;2022-07-04T02:42:58;97094.59;;;24.69;61.60
39411;BME280;26579;43.238;23.124;2022-07-04T02:45:24;97107.31;;;24.67;62.32
39411;BME280;26579;43.238;23.124;2022-07-04T02:47:50;97100.59;;;24.58;62.20
39411;BME280;26579;43.238;23.124;2022-07-04T02:50:15;97097.91;;;24.58;61.95
39411;BME280;26579;43.238;23.124;2022-07-04T02:52:41;97093.22;;;24.60;61.56
39411;BME280;26579;43.238;23.124;2022-07-04T02:55:07;97099.97;;;24.62;62.08
39411;BME280;26579;43.238;23.124;2022-07-04T02:57:32;97105.91;;;24.65;62.07
39411;BME280;26579;43.238;23.124;2022-07-04T02:59:58;97106.91;;;24.63;62.75
39411;BME280;26579;43.238;23.124;2022-07-04T03:02:24;97100.00;;;24.56;62.66
39411;BME280;26579;43.238;23.124;2022-07-04T03:04:50;97112.66;;;24.60;62.78
39411;BME280;26579;43.238;23.124;2022-07-04T03:07:15;97100.22;;;24.48;62.73
39411;BME280;26579;43.238;23.124;2022-07-04T03:09:41;97107.97;;;24.49;62.71
39411;BME280;26579;43.238;23.124;2022-07-04T03:12:07;97112.50;;;24.55;62.87
39411;BME280;26579;43.238;23.124;2022-07-04T03:14:34;97110.41;;;24.57;62.82
39411;BME280;26579;43.238;23.124;2022-07-04T03:16:59;97104.94;;;24.52;62.82
39411;BME280;26579;43.238;23.124;2022-07-04T03:19:25;97103.06;;;24.53;62.97
39411;BME280;26579;43.238;23.124;2022-07-04T03:21:51;97107.78;;;24.51;63.31
39411;BME280;26579;43.238;23.124;2022-07-04T03:24:17;97108.81;;;24.50;62.91
39411;BME280;26579;43.238;23.124;2022-07-04T03:26:42;97111.88;;;24.53;63.03
39411;BME280;26579;43.238;23.124;2022-07-04T03:29:08;97123.56;;;24.52;63.27
39411;BME280;26579;43.238;23.124;2022-07-04T03:31:34;97131.72;;;24.57;63.53
39411;BME280;26579;43.238;23.124;2022-07-04T03:33:59;97113.94;;;24.45;63.77
39411;BME280;26579;43.238;23.124;2022-07-04T03:36:25;97114.34;;;24.42;64.14
39411;BME280;26579;43.238;23.124;2022-07-04T03:38:51;97117.00;;;24.48;63.42
39411;BME280;26579;43.238;23.124;2022-07-04T03:41:16;97123.75;;;24.51;63.63
39411;BME280;26579;43.238;23.124;2022-07-04T03:43:42;97124.94;;;24.55;63.94
39411;BME280;26579;43.238;23.124;2022-07-04T03:46:08;97119.88;;;24.47;63.90
39411;BME280;26579;43.238;23.124;2022-07-04T03:48:34;97116.56;;;24.51;64.22
39411;BME280;26579;43.238;23.124;2022-07-04T03:51:00;97126.81;;;24.54;63.69
39411;BME280;26579;43.238;23.124;2022-07-04T03:53:26;97120.06;;;24.58;63.95
39411;BME280;26579;43.238;23.124;2022-07-04T03:55:52;97121.06;;;24.57;63.72
39411;BME280;26579;43.238;23.124;2022-07-04T03:58:17;97122.28;;;24.61;63.89
39411;BME280;26579;43.238;23.124;2022-07-04T04:00:43;97124.53;;;24.58;64.48
39411;BME280;26579;43.238;23.124;2022-07-04T04:03:09;97113.31;;;24.56;64.47
39411;BME280;26579;43.238;23.124;2022-07-04T04:05:35;97124.91;;;24.68;64.03
39411;BME280;26579;43.238;23.124;2022-07-04T04:08:01;97129.22;;;24.76;63.72
39411;BME280;26579;43.238;23.124;2022-07-04T04:10:28;97128.44;;;24.62;63.86
39411;BME280;26579;43.238;23.124;2022-07-04T04:12:54;97140.44;;;24.78;64.60
39411;BME280;26579;43.238;23.124;2022-07-04T04:15:20;97131.63;;;24.77;64.63
39411;BME280;26579;43.238;23.124;2022-07-04T04:17:46;97130.78;;;24.83;64.05
39411;BME280;26579;43.238;23.124;2022-07-04T04:20:12;97134.50;;;24.82;63.96
39411;BME280;26579;43.238;23.124;2022-07-04T04:22:37;97134.53;;;24.76;64.34
39411;BME280;26579;43.238;23.124;2022-07-04T04:25:04;97129.59;;;24.79;64.35
39411;BME280;26579;43.238;23.124;2022-07-04T04:27:30;97134.03;;;24.92;64.81
39411;BME280;26579;43.238;23.124;2022-07-04T04:29:55;97135.47;;;24.95;64.44
39411;BME280;26579;43.238;23.124;2022-07-04T04:32:21;97146.53;;;24.92;65.09
39411;BME280;26579;43.238;23.124;2022-07-04T04:34:47;97146.13;;;24.95;66.23
39411;BME280;26579;43.238;23.124;2022-07-04T04:37:13;97150.03;;;24.85;65.64
39411;BME280;26579;43.238;23.124;2022-07-04T04:39:39;97145.91;;;24.96;65.17
39411;BME280;26579;43.238;23.124;2022-07-04T04:42:05;97162.44;;;25.12;64.96
39411;BME280;26579;43.238;23.124;2022-07-04T04:44:31;97145.41;;;25.13;64.57
39411;BME280;26579;43.238;23.124;2022-07-04T04:46:56;97162.41;;;25.25;65.28
39411;BME280;26579;43.238;23.124;2022-07-04T04:49:22;97152.13;;;25.28;65.10
39411;BME280;26579;43.238;23.124;2022-07-04T04:51:48;97167.81;;;25.43;66.11
39411;BME280;26579;43.238;23.124;2022-07-04T04:54:14;97169.25;;;25.39;66.46
39411;BME280;26579;43.238;23.124;2022-07-04T04:56:40;97166.53;;;25.52;65.70
39411;BME280;26579;43.238;23.124;2022-07-04T04:59:05;97166.72;;;25.51;66.83
39411;BME280;26579;43.238;23.124;2022-07-04T05:01:31;97161.81;;;25.55;65.38
39411;BME280;26579;43.238;23.124;2022-07-04T05:03:57;97177.69;;;25.68;64.58
39411;BME280;26579;43.238;23.124;2022-07-04T05:06:22;97178.75;;;25.67;64.48
39411;BME280;26579;43.238;23.124;2022-07-04T05:08:48;97168.94;;;25.61;64.32
39411;BME280;26579;43.238;23.124;2022-07-04T05:11:14;97179.13;;;25.70;64.75
39411;BME280;26579;43.238;23.124;2022-07-04T05:13:40;97175.47;;;25.65;65.19
39411;BME280;26579;43.238;23.124;2022-07-04T05:16:06;97188.09;;;25.76;65.13
39411;BME280;26579;43.238;23.124;2022-07-04T05:18:31;97178.50;;;25.75;65.59
39411;BME280;26579;43.238;23.124;2022-07-04T05:20:58;97181.34;;;25.73;66.00
39411;BME280;26579;43.238;23.124;2022-07-04T05:23:24;97175.44;;;25.71;65.57
39411;BME280;26579;43.238;23.124;2022-07-04T05:25:50;97174.16;;;25.81;65.26
39411;BME280;26579;43.238;23.124;2022-07-04T05:28:15;97180.94;;;25.83;65.80
39411;BME280;26579;43.238;23.124;2022-07-04T05:30:41;97174.31;;;25.86;65.08
39411;BME280;26579;43.238;23.124;2022-07-04T05:33:08;97168.16;;;25.85;65.20
39411;BME280;26579;43.238;23.124;2022-07-04T05:35:34;97166.66;;;25.96;65.17
39411;BME280;26579;43.238;23.124;2022-07-04T05:38:00;97171.50;;;26.06;65.34
39411;BME280;26579;43.238;23.124;2022-07-04T05:40:26;97174.03;;;26.01;65.22
39411;BME280;26579;43.238;23.124;2022-07-04T05:42:52;97162.94;;;25.97;66.01
39411;BME280;26579;43.238;23.124;2022-07-04T05:45:17;97170.47;;;26.07;66.80
39411;BME280;26579;43.238;23.124;2022-07-04T05:47:43;97175.50;;;26.15;65.57
39411;BME280;26579;43.238;23.124;2022-07-04T05:50:09;97179.31;;;26.26;63.41
39411;BME280;26579;43.238;23.124;2022-07-04T05:52:36;97166.75;;;26.33;62.64
39411;BME280;26579;43.238;23.124;2022-07-04T05:55:02;97182.16;;;26.56;61.80
39411;BME280;26579;43.238;23.124;2022-07-04T05:57:27;97173.78;;;26.71;60.96
39411;BME280;26579;43.238;23.124;2022-07-04T05:59:53;97179.56;;;26.86;60.41
39411;BME280;26579;43.238;23.124;2022-07-04T06:02:19;97175.53;;;26.95;59.81
39411;BME280;26579;43.238;23.124;2022-07-04T06:04:45;97162.19;;;26.95;57.89
39411;BME280;26579;43.238;23.124;2022-07-04T06:07:11;97169.66;;;27.05;56.42
39411;BME280;26579;43.238;23.124;2022-07-04T06:09:37;97168.03;;;27.04;56.73
39411;BME280;26579;43.238;23.124;2022-07-04T06:12:04;97175.50;;;27.14;56.91
39411;BME280;26579;43.238;23.124;2022-07-04T06:14:30;97185.31;;;27.20;57.99
39411;BME280;26579;43.238;23.124;2022-07-04T06:16:56;97180.72;;;27.27;57.68
39411;BME280;26579;43.238;23.124;2022-07-04T06:19:22;97182.13;;;27.29;56.69
39411;BME280;26579;43.238;23.124;2022-07-04T06:21:48;97179.59;;;27.35;57.40
39411;BME280;26579;43.238;23.124;2022-07-04T06:24:14;97175.31;;;27.45;58.19
39411;BME280;26579;43.238;23.124;2022-07-04T06:26:40;97161.97;;;27.45;59.00
39411;BME280;26579;43.238;23.124;2022-07-04T06:29:05;97175.16;;;27.59;57.24
39411;BME280;26579;43.238;23.124;2022-07-04T06:31:31;97165.75;;;27.68;57.77
39411;BME280;26579;43.238;23.124;2022-07-04T06:33:57;97168.09;;;27.76;57.20
39411;BME280;26579;43.238;23.124;2022-07-04T06:36:26;97171.50;;;27.83;57.35
39411;BME280;26579;43.238;23.124;2022-07-04T06:38:52;97165.22;;;27.89;56.76
39411;BME280;26579;43.238;23.124;2022-07-04T06:41:17;97161.53;;;27.90;57.16
39411;BME280;26579;43.238;23.124;2022-07-04T06:43:43;97159.88;;;27.89;57.74
39411;BME280;26579;43.238;23.124;2022-07-04T06:46:09;97169.56;;;28.02;57.01
39411;BME280;26579;43.238;23.124;2022-07-04T06:48:35;97166.44;;;28.05;56.68
39411;BME280;26579;43.238;23.124;2022-07-04T06:51:00;97153.16;;;27.98;56.42
39411;BME280;26579;43.238;23.124;2022-07-04T06:53:26;97167.59;;;28.09;57.07
39411;BME280;26579;43.238;23.124;2022-07-04T06:55:52;97159.56;;;28.09;57.37
39411;BME280;26579;43.238;23.124;2022-07-04T06:58:18;97168.88;;;28.18;58.16
39411;BME280;26579;43.238;23.124;2022-07-04T07:00:43;97158.75;;;28.32;56.61
39411;BME280;26579;43.238;23.124;2022-07-04T07:03:09;97152.72;;;28.37;55.73
39411;BME280;26579;43.238;23.124;2022-07-04T07:05:35;97151.78;;;28.43;55.61
39411;BME280;26579;43.238;23.124;2022-07-04T07:08:01;97158.56;;;28.46;56.53
39411;BME280;26579;43.238;23.124;2022-07-04T07:10:27;97159.94;;;28.60;55.90
39411;BME280;26579;43.238;23.124;2022-07-04T07:12:53;97156.28;;;28.78;56.14
39411;BME280;26579;43.238;23.124;2022-07-04T07:15:19;97157.53;;;28.87;55.01
39411;BME280;26579;43.238;23.124;2022-07-04T07:17:44;97145.91;;;28.81;54.64
39411;BME280;26579;43.238;23.124;2022-07-04T07:20:10;97155.00;;;28.80;55.56
39411;BME280;26579;43.238;23.124;2022-07-04T07:22:36;97147.03;;;28.85;55.22
39411;BME280;26579;43.238;23.124;2022-07-04T07:25:02;97152.16;;;28.99;53.68
39411;BME280;26579;43.238;23.124;2022-07-04T07:27:28;97148.31;;;29.06;53.28
39411;BME280;26579;43.238;23.124;2022-07-04T07:29:53;97150.38;;;29.16;52.70
39411;BME280;26579;43.238;23.124;2022-07-04T07:32:19;97151.59;;;29.25;54.14
39411;BME280;26579;43.238;23.124;2022-07-04T07:34:45;97147.03;;;29.09;53.77
39411;BME280;26579;43.238;23.124;2022-07-04T07:37:11;97150.22;;;29.23;54.15
39411;BME280;26579;43.238;23.124;2022-07-04T07:39:37;97156.34;;;29.35;53.12
39411;BME280;26579;43.238;23.124;2022-07-04T07:42:02;97152.03;;;29.34;52.35
39411;BME280;26579;43.238;23.124;2022-07-04T07:44:28;97140.09;;;29.25;51.53
39411;BME280;26579;43.238;23.124;2022-07-04T07:46:54;97150.53;;;29.38;51.17
39411;BME280;26579;43.238;23.124;2022-07-04T07:49:20;97158.91;;;29.42;51.99
39411;BME280;26579;43.238;23.124;2022-07-04T07:51:45;97142.66;;;29.48;52.90
39411;BME280;26579;43.238;23.124;2022-07-04T07:54:11;97156.25;;;29.59;51.04
39411;BME280;26579;43.238;23.124;2022-07-04T07:56:37;97135.50;;;29.54;50.82
39411;BME280;26579;43.238;23.124;2022-07-04T07:59:03;97149.50;;;29.56;51.38
39411;BME280;26579;43.238;23.124;2022-07-04T08:01:28;97144.31;;;29.66;50.81
39411;BME280;26579;43.238;23.124;2022-07-04T08:03:54;97142.78;;;29.70;49.01
39411;BME280;26579;43.238;23.124;2022-07-04T08:06:20;97136.09;;;29.73;49.89
39411;BME280;26579;43.238;23.124;2022-07-04T08:08:46;97130.84;;;29.78;50.85
39411;BME280;26579;43.238;23.124;2022-07-04T08:11:12;97129.22;;;29.77;49.37
39411;BME280;26579;43.238;23.124;2022-07-04T08:13:39;97129.53;;;29.81;51.12
39411;BME280;26579;43.238;23.124;2022-07-04T08:16:06;97136.28;;;29.83;52.88
39411;BME280;26579;43.238;23.124;2022-07-04T08:18:32;97135.78;;;29.86;52.24
39411;BME280;26579;43.238;23.124;2022-07-04T08:20:58;97138.78;;;29.90;53.39
39411;BME280;26579;43.238;23.124;2022-07-04T08:23:26;97136.13;;;29.90;53.19
39411;BME280;26579;43.238;23.124;2022-07-04T08:25:52;97136.88;;;30.02;54.16
39411;BME280;26579;43.238;23.124;2022-07-04T08:28:18;97136.19;;;30.12;53.14
39411;BME280;26579;43.238;23.124;2022-07-04T08:30:43;97142.47;;;30.17;52.46
39411;BME280;26579;43.238;23.124;2022-07-04T08:33:09;97133.34;;;30.18;51.69
39411;BME280;26579;43.238;23.124;2022-07-04T08:35:35;97125.69;;;30.27;53.06
39411;BME280;26579;43.238;23.124;2022-07-04T08:38:00;97124.47;;;30.35;50.96
39411;BME280;26579;43.238;23.124;2022-07-04T08:40:27;97127.16;;;30.35;50.70
39411;BME280;26579;43.238;23.124;2022-07-04T08:42:53;97131.03;;;30.44;50.82
39411;BME280;26579;43.238;23.124;2022-07-04T08:45:30;97127.66;;;30.32;51.21
39411;BME280;26579;43.238;23.124;2022-07-04T08:48:04;97128.69;;;30.31;50.22
39411;BME280;26579;43.238;23.124;2022-07-04T08:53:02;97127.16;;;30.35;49.99
39411;BME280;26579;43.238;23.124;2022-07-04T08:55:29;97132.50;;;30.52;50.09
39411;BME280;26579;43.238;23.124;2022-07-04T08:57:55;97140.41;;;30.41;49.33
39411;BME280;26579;43.238;23.124;2022-07-04T09:00:21;97133.03;;;30.32;48.99
39411;BME280;26579;43.238;23.124;2022-07-04T09:02:47;97135.22;;;30.35;48.40
39411;BME280;26579;43.238;23.124;2022-07-04T09:05:13;97141.22;;;30.42;48.86
39411;BME280;26579;43.238;23.124;2022-07-04T09:07:39;97143.25;;;30.52;48.23
39411;BME280;26579;43.238;23.124;2022-07-04T09:10:06;97133.03;;;30.54;49.37
39411;BME280;26579;43.238;23.124;2022-07-04T09:12:33;97141.00;;;30.65;46.76
39411;BME280;26579;43.238;23.124;2022-07-04T09:15:01;97139.25;;;30.76;47.99
39411;BME280;26579;43.238;23.124;2022-07-04T09:17:28;97134.50;;;30.83;48.26
39411;BME280;26579;43.238;23.124;2022-07-04T09:22:38;97129.88;;;31.01;45.56
39411;BME280;26579;43.238;23.124;2022-07-04T09:25:04;97133.19;;;31.08;46.78
39411;BME280;26579;43.238;23.124;2022-07-04T09:27:32;97128.69;;;31.13;45.71
39411;BME280;26579;43.238;23.124;2022-07-04T09:29:59;97137.34;;;31.21;45.51
39411;BME280;26579;43.238;23.124;2022-07-04T09:37:43;97116.34;;;31.40;46.14
39411;BME280;26579;43.238;23.124;2022-07-04T09:40:10;97127.91;;;31.40;45.88
39411;BME280;26579;43.238;23.124;2022-07-04T09:42:40;97132.22;;;31.41;45.68
39411;BME280;26579;43.238;23.124;2022-07-04T09:45:10;97124.47;;;31.45;46.58
39411;BME280;26579;43.238;23.124;2022-07-04T09:47:38;97100.44;;;31.38;45.76
39411;BME280;26579;43.238;23.124;2022-07-04T09:50:06;97129.41;;;31.58;48.03
39411;BME280;26579;43.238;23.124;2022-07-04T09:52:43;97132.50;;;31.72;46.12
39411;BME280;26579;43.238;23.124;2022-07-04T09:55:10;97130.19;;;31.86;48.00
39411;BME280;26579;43.238;23.124;2022-07-04T09:57:35;97130.06;;;32.02;44.18
39411;BME280;26579;43.238;23.124;2022-07-04T10:00:21;97125.44;;;31.93;43.13
39411;BME280;26579;43.238;23.124;2022-07-04T10:02:48;97125.53;;;31.76;45.82
39411;BME280;26579;43.238;23.124;2022-07-04T10:05:20;97133.81;;;31.69;47.10
39411;BME280;26579;43.238;23.124;2022-07-04T10:07:46;97123.00;;;31.64;47.06
39411;BME280;26579;43.238;23.124;2022-07-04T10:10:27;97126.50;;;31.65;46.27
39411;BME280;26579;43.238;23.124;2022-07-04T10:12:56;97116.94;;;31.74;44.27
39411;BME280;26579;43.238;23.124;2022-07-04T10:15:22;97130.03;;;31.65;43.58
39411;BME280;26579;43.238;23.124;2022-07-04T10:17:48;97127.59;;;31.64;44.54
39411;BME280;26579;43.238;23.124;2022-07-04T10:20:14;97124.34;;;31.62;43.96
39411;BME280;26579;43.238;23.124;2022-07-04T10:22:40;97120.75;;;31.51;43.35
39411;BME280;26579;43.238;23.124;2022-07-04T10:25:07;97115.16;;;31.57;44.82
39411;BME280;26579;43.238;23.124;2022-07-04T10:27:34;97111.66;;;31.57;44.45
39411;BME280;26579;43.238;23.124;2022-07-04T10:30:02;97112.25;;;31.64;44.25
39411;BME280;26579;43.238;23.124;2022-07-04T10:32:29;97116.59;;;31.65;45.02
39411;BME280;26579;43.238;23.124;2022-07-04T10:34:55;97124.78;;;31.48;41.97
39411;BME280;26579;43.238;23.124;2022-07-04T10:37:21;97130.09;;;31.43;41.64
39411;BME280;26579;43.238;23.124;2022-07-04T10:39:48;97123.28;;;31.35;41.38
39411;BME280;26579;43.238;23.124;2022-07-04T10:42:24;97117.66;;;31.37;42.68
39411;BME280;26579;43.238;23.124;2022-07-04T10:44:50;97099.22;;;31.24;45.30
39411;BME280;26579;43.238;23.124;2022-07-04T10:47:23;97104.50;;;31.41;46.71
39411;BME280;26579;43.238;23.124;2022-07-04T10:49:50;97090.44;;;31.33;46.42
39411;BME280;26579;43.238;23.124;2022-07-04T10:52:17;97100.06;;;31.29;48.52
39411;BME280;26579;43.238;23.124;2022-07-04T10:54:44;97104.94;;;31.32;44.39
39411;BME280;26579;43.238;23.124;2022-07-04T10:57:16;97105.66;;;31.23;41.68
39411;BME280;26579;43.238;23.124;2022-07-04T11:00:02;97084.34;;;31.16;44.79
39411;BME280;26579;43.238;23.124;2022-07-04T11:02:36;97105.72;;;31.28;41.97
39411;BME280;26579;43.238;23.124;2022-07-04T11:05:07;97104.06;;;31.27;42.09
39411;BME280;26579;43.238;23.124;2022-07-04T11:17:59;97092.28;;;31.28;44.36
39411;BME280;26579;43.238;23.124;2022-07-04T11:20:27;97092.44;;;31.16;49.78
39411;BME280;26579;43.238;23.124;2022-07-04T11:23:03;97088.16;;;31.20;49.41
39411;BME280;26579;43.238;23.124;2022-07-04T11:25:29;97084.91;;;31.18;49.60
39411;BME280;26579;43.238;23.124;2022-07-04T11:27:54;97070.41;;;31.19;52.23
39411;BME280;26579;43.238;23.124;2022-07-04T11:30:20;97072.59;;;31.22;51.71
39411;BME280;26579;43.238;23.124;2022-07-04T11:32:46;97078.78;;;31.23;52.91
39411;BME280;26579;43.238;23.124;2022-07-04T11:35:11;97074.47;;;31.22;53.35
39411;BME280;26579;43.238;23.124;2022-07-04T11:37:37;97046.16;;;31.14;53.14
39411;BME280;26579;43.238;23.124;2022-07-04T11:40:03;97065.28;;;31.18;52.55
39411;BME280;26579;43.238;23.124;2022-07-04T11:42:29;97070.69;;;31.23;52.33
39411;BME280;26579;43.238;23.124;2022-07-04T11:44:55;97058.63;;;31.25;51.48
39411;BME280;26579;43.238;23.124;2022-07-04T11:47:28;97060.53;;;31.30;50.87
39411;BME280;26579;43.238;23.124;2022-07-04T11:49:58;97058.97;;;31.34;48.59
39411;BME280;26579;43.238;23.124;2022-07-04T11:52:28;97064.44;;;31.39;47.40
39411;BME280;26579;43.238;23.124;2022-07-04T11:54:54;97063.66;;;31.44;48.77
39411;BME280;26579;43.238;23.124;2022-07-04T11:57:23;97059.41;;;31.48;50.29
39411;BME280;26579;43.238;23.124;2022-07-04T11:59:54;97053.75;;;31.49;45.33
39411;BME280;26579;43.238;23.124;2022-07-04T12:02:20;97054.09;;;31.58;45.75
39411;BME280;26579;43.238;23.124;2022-07-04T12:04:45;97047.56;;;31.49;43.67
39411;BME280;26579;43.238;23.124;2022-07-04T12:07:13;97046.56;;;31.60;48.62
39411;BME280;26579;43.238;23.124;2022-07-04T12:09:39;97054.41;;;31.67;48.26
39411;BME280;26579;43.238;23.124;2022-07-04T12:12:06;97053.13;;;31.74;48.55
39411;BME280;26579;43.238;23.124;2022-07-04T12:14:33;97059.34;;;31.75;44.37
39411;BME280;26579;43.238;23.124;2022-07-04T12:17:29;97057.53;;;31.86;43.44
39411;BME280;26579;43.238;23.124;2022-07-04T12:19:59;97039.22;;;31.83;44.09
39411;BME280;26579;43.238;23.124;2022-07-04T12:22:35;97044.16;;;31.96;42.80
39411;BME280;26579;43.238;23.124;2022-07-04T12:25:04;97040.41;;;32.02;42.71
39411;BME280;26579;43.238;23.124;2022-07-04T12:27:30;97026.38;;;31.95;43.85
39411;BME280;26579;43.238;23.124;2022-07-04T12:29:57;97024.78;;;31.99;43.25
39411;BME280;26579;43.238;23.124;2022-07-04T12:32:23;97035.34;;;32.11;41.84
39411;BME280;26579;43.238;23.124;2022-07-04T12:34:49;97025.16;;;32.18;41.10
39411;BME280;26579;43.238;23.124;2022-07-04T12:37:16;97017.38;;;32.21;41.31
39411;BME280;26579;43.238;23.124;2022-07-04T12:39:43;96999.84;;;32.19;41.42
39411;BME280;26579;43.238;23.124;2022-07-04T12:44:37;97027.75;;;32.50;41.18
39411;BME280;26579;43.238;23.124;2022-07-04T12:47:04;97021.84;;;32.58;40.60
39411;BME280;26579;43.238;23.124;2022-07-04T12:49:31;97017.81;;;32.61;40.69
39411;BME280;26579;43.238;23.124;2022-07-04T12:52:09;97013.25;;;32.66;40.28
39411;BME280;26579;43.238;23.124;2022-07-04T12:54:35;97011.91;;;32.69;40.31
39411;BME280;26579;43.238;23.124;2022-07-04T12:57:11;97010.59;;;32.82;39.41
39411;BME280;26579;43.238;23.124;2022-07-04T12:59:39;97013.28;;;32.87;41.79
39411;BME280;26579;43.238;23.124;2022-07-04T13:02:05;96998.75;;;32.88;39.33
39411;BME280;26579;43.238;23.124;2022-07-04T13:04:32;97005.47;;;32.96;40.67
39411;BME280;26579;43.238;23.124;2022-07-04T13:06:58;96998.22;;;32.96;39.04
39411;BME280;26579;43.238;23.124;2022-07-04T13:09:24;96998.22;;;32.96;38.67
39411;BME280;26579;43.238;23.124;2022-07-04T13:11:49;97000.63;;;32.87;38.50